Time;durP1;ratioP1;P1;durP2;ratioP2;P2;SDS_P1;SDS_P2;PMS_P1;PMS_P2;Temp;Humidity;BMP_temperature;BMP_pressure;BME280_temperature;BME280_humidity;BME280_pressure;Samples;Min_cycle;Max_cycle;Signal;HPM_P1;HPM_P2
2023/05/25 00:00:11;;;;;;;11.27;4.73;;;10.20;99.90;;;;;;5091297;28;20261;-71
2023/05/25 00:02:38;;;;;;;8.63;4.03;;;10.10;99.90;;;;;;5091156;28;20215;-72
2023/05/25 00:05:07;;;;;;;11.67;4.80;;;10.10;99.90;;;;;;5089632;28;20200;-71
2023/05/25 00:07:34;;;;;;;11.63;4.23;;;10.00;99.90;;;;;;5090361;28;20235;-72
2023/05/25 00:10:02;;;;;;;10.50;4.07;;;10.00;99.90;;;;;;5086487;28;20707;-71
2023/05/25 00:12:28;;;;;;;8.80;4.10;;;10.00;99.90;;;;;;5089985;28;20297;-73
2023/05/25 00:14:55;;;;;;;8.30;4.83;;;9.90;99.90;;;;;;5090760;28;20219;-72
2023/05/25 00:17:23;;;;;;;8.27;4.83;;;9.90;99.90;;;;;;5089971;28;20211;-73
2023/05/25 00:19:50;;;;;;;8.13;4.47;;;9.90;99.90;;;;;;5090808;28;20237;-73
2023/05/25 00:22:17;;;;;;;15.03;5.17;;;9.90;99.90;;;;;;5090882;28;20214;-71
2023/05/25 00:24:43;;;;;;;8.23;4.60;;;9.80;99.90;;;;;;5090596;28;20585;-71
2023/05/25 00:27:10;;;;;;;10.83;5.00;;;9.80;99.90;;;;;;5090667;28;20220;-71
2023/05/25 00:29:37;;;;;;;8.20;4.83;;;9.80;99.90;;;;;;5090521;28;20257;-72
2023/05/25 00:32:04;;;;;;;8.87;4.80;;;9.70;99.90;;;;;;5086722;28;20211;-72
2023/05/25 00:34:31;;;;;;;10.50;4.40;;;9.70;99.90;;;;;;5089596;28;20203;-72
2023/05/25 00:36:58;;;;;;;12.13;5.47;;;9.60;99.90;;;;;;5086419;28;20220;-71
2023/05/25 00:39:25;;;;;;;14.23;5.07;;;9.60;99.90;;;;;;5090432;28;20251;-72
2023/05/25 00:41:53;;;;;;;10.17;4.83;;;9.60;99.90;;;;;;5090345;28;20210;-72
2023/05/25 00:44:20;;;;;;;9.53;4.37;;;9.60;99.90;;;;;;5087972;28;20362;-72
2023/05/25 00:46:49;;;;;;;7.90;4.33;;;9.50;99.90;;;;;;5090902;28;20260;-73
2023/05/25 00:49:18;;;;;;;11.00;5.30;;;9.50;99.90;;;;;;5090105;28;20222;-73
2023/05/25 00:51:46;;;;;;;9.30;5.13;;;9.50;99.90;;;;;;5090236;28;20256;-71
2023/05/25 00:54:14;;;;;;;11.47;5.10;;;9.50;99.90;;;;;;5071990;28;20234;-71
2023/05/25 00:56:46;;;;;;;11.73;4.83;;;9.40;99.90;;;;;;5090028;28;20222;-72
2023/05/25 00:59:27;;;;;;;9.57;4.77;;;9.40;99.90;;;;;;5089739;28;20221;-72
2023/05/25 01:01:56;;;;;;;9.30;5.00;;;9.40;99.90;;;;;;5089952;28;20198;-71
2023/05/25 01:04:27;;;;;;;11.07;4.93;;;9.40;99.90;;;;;;5089810;28;20220;-71
2023/05/25 01:06:57;;;;;;;11.67;5.47;;;9.30;99.90;;;;;;5090056;28;20202;-72
2023/05/25 01:09:26;;;;;;;12.03;5.70;;;9.40;99.90;;;;;;5086600;28;20206;-72
2023/05/25 01:11:55;;;;;;;12.00;5.00;;;9.20;99.90;;;;;;5089929;28;20274;-72
2023/05/25 01:14:23;;;;;;;11.90;5.00;;;9.20;99.90;;;;;;5089437;28;20216;-72
2023/05/25 01:16:50;;;;;;;7.00;4.30;;;9.20;99.90;;;;;;5089780;28;20208;-73
2023/05/25 01:19:17;;;;;;;11.63;4.70;;;9.20;99.90;;;;;;5089664;28;20201;-72
2023/05/25 01:22:11;;;;;;;7.30;4.47;;;9.10;99.90;;;;;;5089803;28;20206;-71
2023/05/25 01:24:40;;;;;;;9.07;4.63;;;9.10;99.90;;;;;;5088447;28;20726;-71
2023/05/25 01:27:21;;;;;;;12.83;5.67;;;9.10;99.90;;;;;;5089677;28;20206;-73
2023/05/25 01:29:48;;;;;;;7.87;4.80;;;9.00;99.90;;;;;;5087215;28;20746;-73
2023/05/25 01:32:16;;;;;;;11.07;4.60;;;9.00;99.90;;;;;;5089514;28;20210;-72
2023/05/25 01:34:45;;;;;;;10.77;5.37;;;9.00;99.90;;;;;;5089366;28;20214;-72
2023/05/25 01:37:12;;;;;;;10.63;4.90;;;9.00;99.90;;;;;;5069803;28;20716;-72
2023/05/25 01:39:40;;;;;;;16.70;5.37;;;8.90;99.90;;;;;;5089508;28;20212;-73
2023/05/25 01:42:07;;;;;;;9.27;4.60;;;8.90;99.90;;;;;;5086259;28;20258;-74
2023/05/25 01:44:35;;;;;;;10.17;5.07;;;8.90;99.90;;;;;;5085123;28;20291;-72
2023/05/25 01:47:09;;;;;;;11.10;4.80;;;8.90;99.90;;;;;;5089636;28;20207;-72
2023/05/25 01:49:51;;;;;;;10.13;4.83;;;8.90;99.90;;;;;;5089450;28;20517;-72
2023/05/25 01:52:22;;;;;;;11.60;5.37;;;8.80;99.90;;;;;;5085890;28;20259;-71
2023/05/25 01:54:58;;;;;;;15.50;5.00;;;8.80;99.90;;;;;;5089545;28;20209;-72
2023/05/25 01:57:27;;;;;;;14.27;5.33;;;8.80;99.90;;;;;;5088954;28;20263;-72
2023/05/25 02:00:01;;;;;;;9.80;4.33;;;8.80;99.90;;;;;;5089291;28;20222;-73
2023/05/25 02:02:29;;;;;;;9.27;4.97;;;8.80;99.90;;;;;;5086450;28;20672;-71
2023/05/25 02:04:57;;;;;;;8.40;5.13;;;8.70;99.90;;;;;;5089210;28;20210;-72
2023/05/25 02:07:23;;;;;;;14.73;4.90;;;8.70;99.90;;;;;;5071087;28;20201;-72
2023/05/25 02:09:50;;;;;;;12.47;4.60;;;8.70;99.90;;;;;;5089492;28;20211;-73
2023/05/25 02:12:17;;;;;;;10.23;4.77;;;8.70;99.90;;;;;;5089549;28;20206;-71
2023/05/25 02:14:47;;;;;;;7.77;4.37;;;8.70;99.90;;;;;;5088989;28;20695;-74
2023/05/25 02:17:16;;;;;;;8.50;4.67;;;8.70;99.90;;;;;;5085069;28;20248;-72
2023/05/25 02:19:44;;;;;;;9.93;4.43;;;8.60;99.90;;;;;;5085728;28;20564;-71
2023/05/25 02:22:11;;;;;;;9.73;4.83;;;8.60;99.90;;;;;;5088873;28;20197;-73
2023/05/25 02:24:37;;;;;;;11.23;5.63;;;8.60;99.90;;;;;;5089153;28;20218;-72
2023/05/25 02:27:05;;;;;;;12.00;4.83;;;8.60;99.90;;;;;;5088678;28;20239;-71
2023/05/25 02:29:32;;;;;;;8.87;4.40;;;8.50;99.90;;;;;;5084907;28;20540;-72
2023/05/25 02:31:59;;;;;;;12.93;4.70;;;8.50;99.90;;;;;;5089216;28;20206;-71
2023/05/25 02:34:25;;;;;;;9.70;4.60;;;8.50;99.90;;;;;;5089035;28;20205;-71
2023/05/25 02:36:52;;;;;;;9.97;4.87;;;8.50;99.90;;;;;;5089159;28;20205;-72
2023/05/25 02:39:19;;;;;;;10.83;4.87;;;8.50;99.90;;;;;;5088784;28;20552;-71
2023/05/25 02:41:46;;;;;;;8.23;4.47;;;8.50;99.90;;;;;;5088750;28;20205;-72
2023/05/25 02:44:12;;;;;;;10.07;4.37;;;8.40;99.90;;;;;;5066137;28;20249;-72
2023/05/25 02:46:39;;;;;;;12.50;5.40;;;8.40;99.90;;;;;;5087688;28;20201;-72
2023/05/25 02:49:06;;;;;;;8.70;4.47;;;8.40;99.90;;;;;;5079998;28;20234;-71
2023/05/25 02:51:33;;;;;;;8.07;4.43;;;8.40;99.90;;;;;;5084729;28;20200;-71
2023/05/25 02:54:00;;;;;;;8.07;4.80;;;8.40;99.90;;;;;;5088127;28;20252;-72
2023/05/25 02:56:27;;;;;;;11.73;4.93;;;8.30;99.90;;;;;;5088203;28;20220;-71
2023/05/25 02:58:54;;;;;;;12.30;4.87;;;8.30;99.90;;;;;;5092013;28;20201;-72
2023/05/25 03:01:20;;;;;;;11.73;4.90;;;8.30;99.90;;;;;;5074417;28;20617;-72
2023/05/25 03:03:51;;;;;;;8.23;4.30;;;8.30;99.90;;;;;;5092203;28;20204;-72
2023/05/25 03:06:20;;;;;;;11.73;4.50;;;8.30;99.90;;;;;;5091854;28;20705;-72
2023/05/25 03:08:47;;;;;;;11.07;5.00;;;8.20;99.90;;;;;;5075211;28;20229;-71
2023/05/25 03:11:14;;;;;;;13.37;4.83;;;8.20;99.90;;;;;;5092143;28;20204;-71
2023/05/25 03:13:41;;;;;;;12.33;5.33;;;8.20;99.90;;;;;;5088041;28;20197;-71
2023/05/25 03:16:07;;;;;;;10.67;4.83;;;8.20;99.90;;;;;;5087801;28;20273;-71
2023/05/25 03:18:35;;;;;;;12.93;5.27;;;8.20;99.90;;;;;;5092283;28;20225;-71
2023/05/25 03:21:01;;;;;;;8.27;5.17;;;8.10;99.90;;;;;;5092053;28;20539;-71
2023/05/25 03:23:28;;;;;;;9.77;5.00;;;8.20;99.90;;;;;;5091505;28;20215;-72
2023/05/25 03:25:55;;;;;;;10.13;5.67;;;8.20;99.90;;;;;;5091707;28;20656;-71
2023/05/25 03:28:22;;;;;;;13.83;5.30;;;8.20;99.90;;;;;;5091816;28;20293;-72
2023/05/25 03:30:49;;;;;;;13.47;5.40;;;8.10;99.90;;;;;;5091903;28;20251;-72
2023/05/25 03:33:15;;;;;;;11.83;5.43;;;8.10;99.90;;;;;;5091390;28;20236;-72
2023/05/25 03:35:42;;;;;;;12.20;5.87;;;8.10;99.90;;;;;;5086161;28;20212;-71
2023/05/25 03:38:09;;;;;;;12.83;5.70;;;8.10;99.90;;;;;;5091110;28;20656;-73
2023/05/25 03:40:36;;;;;;;10.17;4.63;;;8.10;99.90;;;;;;5091610;28;20251;-72
2023/05/25 03:43:02;;;;;;;14.43;5.30;;;8.10;99.90;;;;;;5085273;28;20590;-72
2023/05/25 03:45:29;;;;;;;8.57;4.87;;;8.10;99.90;;;;;;5091579;28;20233;-72
2023/05/25 03:47:56;;;;;;;14.17;5.27;;;8.10;99.90;;;;;;5091181;28;20283;-73
2023/05/25 03:50:23;;;;;;;10.47;5.40;;;8.10;99.90;;;;;;5091636;28;20274;-72
2023/05/25 03:52:50;;;;;;;13.37;5.50;;;8.10;99.90;;;;;;5091802;28;20219;-71
2023/05/25 03:55:16;;;;;;;14.17;6.07;;;8.10;99.90;;;;;;5091506;28;20208;-72
2023/05/25 03:57:43;;;;;;;13.77;5.03;;;8.10;99.90;;;;;;5090410;28;20260;-73
2023/05/25 04:00:11;;;;;;;13.23;6.20;;;8.10;99.90;;;;;;5091722;28;20210;-72
2023/05/25 04:02:38;;;;;;;17.80;6.03;;;8.10;99.90;;;;;;5091232;28;20590;-72
2023/05/25 04:05:05;;;;;;;15.17;5.60;;;8.10;99.90;;;;;;5090766;28;20205;-72
2023/05/25 04:07:32;;;;;;;12.43;5.97;;;8.20;99.90;;;;;;5091210;28;20278;-73
2023/05/25 04:09:59;;;;;;;13.97;5.53;;;8.20;99.90;;;;;;5090467;28;20641;-72
2023/05/25 04:12:26;;;;;;;15.73;6.57;;;8.30;99.90;;;;;;5090613;28;20208;-71
2023/05/25 04:14:53;;;;;;;15.47;6.03;;;8.30;99.90;;;;;;5091250;28;20239;-72
2023/05/25 04:17:23;;;;;;;14.67;6.07;;;8.30;99.90;;;;;;5090523;28;20228;-72
2023/05/25 04:19:51;;;;;;;13.30;6.43;;;8.40;99.90;;;;;;5091252;28;20283;-71
2023/05/25 04:22:18;;;;;;;16.83;6.80;;;8.40;99.90;;;;;;5089899;28;20562;-72
2023/05/25 04:24:45;;;;;;;13.77;6.80;;;8.50;99.90;;;;;;5089003;28;20626;-72
2023/05/25 04:27:13;;;;;;;13.13;5.57;;;8.50;99.90;;;;;;5090874;28;20258;-72
2023/05/25 04:29:43;;;;;;;16.40;6.67;;;8.50;99.90;;;;;;5090447;28;20236;-73
2023/05/25 04:32:09;;;;;;;11.77;6.10;;;8.50;99.90;;;;;;5091043;28;20224;-74
2023/05/25 04:34:36;;;;;;;11.63;6.50;;;8.60;99.90;;;;;;5090506;28;20263;-72
2023/05/25 04:37:04;;;;;;;15.73;6.90;;;8.70;99.90;;;;;;5090741;28;20269;-73
2023/05/25 04:39:31;;;;;;;18.17;6.50;;;8.70;99.90;;;;;;5087377;28;20210;-73
2023/05/25 04:42:00;;;;;;;17.33;6.63;;;8.80;99.90;;;;;;5089136;28;20211;-71
2023/05/25 04:44:28;;;;;;;15.20;7.00;;;8.90;99.90;;;;;;5090652;28;20581;-71
2023/05/25 04:46:56;;;;;;;14.07;5.50;;;9.00;99.90;;;;;;5090430;28;20257;-73
2023/05/25 04:49:22;;;;;;;14.40;6.07;;;9.00;99.90;;;;;;5086323;28;20679;-74
2023/05/25 04:51:50;;;;;;;15.33;6.57;;;9.10;99.90;;;;;;5089988;28;20196;-74
2023/05/25 04:54:17;;;;;;;16.37;6.30;;;9.20;99.90;;;;;;5090592;28;20205;-72
2023/05/25 04:56:44;;;;;;;14.20;6.13;;;9.20;99.90;;;;;;5089647;28;20253;-72
2023/05/25 04:59:11;;;;;;;21.60;6.50;;;9.30;99.90;;;;;;5090176;28;20554;-73
2023/05/25 05:01:40;;;;;;;11.43;6.13;;;9.40;99.90;;;;;;5089879;28;20296;-74
2023/05/25 05:04:07;;;;;;;14.83;6.30;;;9.50;99.90;;;;;;5089621;28;20314;-72
2023/05/25 05:06:35;;;;;;;12.70;5.90;;;9.50;99.90;;;;;;5088809;28;20253;-72
2023/05/25 05:09:02;;;;;;;17.70;6.00;;;9.60;99.90;;;;;;5090202;28;20239;-73
2023/05/25 05:11:29;;;;;;;13.87;6.20;;;9.70;99.90;;;;;;5087441;28;20220;-72
2023/05/25 05:13:56;;;;;;;15.43;7.13;;;9.80;99.90;;;;;;5083874;28;20207;-71
2023/05/25 05:16:23;;;;;;;15.60;5.33;;;9.90;99.90;;;;;;5089948;28;20306;-73
2023/05/25 05:18:50;;;;;;;10.70;5.20;;;10.40;99.90;;;;;;5083825;28;20377;-72
2023/05/25 05:21:17;;;;;;;13.00;5.33;;;10.50;99.90;;;;;;5089843;28;20200;-72
2023/05/25 05:23:44;;;;;;;14.60;6.40;;;10.10;99.90;;;;;;5068311;28;20274;-72
2023/05/25 05:26:13;;;;;;;13.00;6.33;;;10.20;99.90;;;;;;5083834;28;20725;-74
2023/05/25 05:28:41;;;;;;;13.10;5.93;;;10.40;99.90;;;;;;5085419;28;20224;-73
2023/05/25 05:31:08;;;;;;;17.60;6.27;;;10.40;99.90;;;;;;5089125;28;20220;-72
2023/05/25 05:33:35;;;;;;;11.93;6.03;;;11.20;99.90;;;;;;5088900;28;20205;-72
2023/05/25 05:36:02;;;;;;;14.70;5.97;;;12.60;99.90;;;;;;5087742;28;20199;-72
2023/05/25 05:38:29;;;;;;;13.57;4.83;;;12.40;99.90;;;;;;5086022;28;20709;-73
2023/05/25 05:40:56;;;;;;;15.03;5.30;;;13.00;99.90;;;;;;5085986;28;20211;-73
2023/05/25 05:43:23;;;;;;;10.77;4.13;;;14.30;99.90;;;;;;5082635;28;20201;-74
2023/05/25 05:45:50;;;;;;;10.93;4.90;;;15.90;99.90;;;;;;5084086;28;20220;-72
2023/05/25 05:48:17;;;;;;;7.40;4.35;;;16.40;99.90;;;;;;5088838;28;20211;-73
2023/05/25 05:50:44;;;;;;;10.85;4.32;;;17.40;99.90;;;;;;5068008;28;20226;-74
2023/05/25 05:53:11;;;;;;;13.05;4.28;;;17.80;99.90;;;;;;5085139;28;20298;-73
2023/05/25 05:55:37;;;;;;;9.13;4.28;;;19.20;99.90;;;;;;5084323;28;20214;-73
2023/05/25 05:58:05;;;;;;;9.43;4.97;;;20.10;99.90;;;;;;5084528;28;20227;-74
2023/05/25 06:00:33;;;;;;;8.75;3.70;;;19.40;99.90;;;;;;5083777;28;20223;-73
2023/05/25 06:02:59;;;;;;;7.78;4.50;;;19.40;99.90;;;;;;5087839;28;20207;-74
2023/05/25 06:05:27;;;;;;;12.00;5.03;;;19.60;99.90;;;;;;5071340;28;20199;-73
2023/05/25 06:07:53;;;;;;;12.00;4.57;;;19.40;99.90;;;;;;5089525;28;20208;-73
2023/05/25 06:10:20;;;;;;;8.73;4.50;;;19.90;99.90;;;;;;5088646;28;20707;-72
2023/05/25 06:12:47;;;;;;;12.57;4.60;;;18.50;99.90;;;;;;5085759;28;20223;-74
2023/05/25 06:15:14;;;;;;;10.40;4.70;;;18.30;99.90;;;;;;5088359;28;20200;-73
2023/05/25 06:17:42;;;;;;;9.10;5.00;;;17.50;99.90;;;;;;5069057;28;20671;-74
2023/05/25 06:20:09;;;;;;;9.82;4.88;;;17.10;99.90;;;;;;5084244;28;20653;-75
2023/05/25 06:22:36;;;;;;;13.10;5.35;;;16.80;99.90;;;;;;5088430;28;20287;-73
2023/05/25 06:25:03;;;;;;;11.15;5.07;;;16.80;99.90;;;;;;5080391;28;20208;-73
2023/05/25 06:27:30;;;;;;;11.27;5.47;;;16.10;99.90;;;;;;5078896;28;20224;-73
2023/05/25 06:29:57;;;;;;;9.20;5.30;;;16.20;99.90;;;;;;5068537;28;20231;-73
2023/05/25 06:32:24;;;;;;;11.68;5.82;;;15.70;99.90;;;;;;5089481;28;20222;-72
2023/05/25 06:34:51;;;;;;;9.45;5.43;;;16.00;99.90;;;;;;5095286;28;20199;-72
2023/05/25 06:37:18;;;;;;;11.35;5.60;;;15.60;99.90;;;;;;5092430;28;20204;-73
2023/05/25 06:39:44;;;;;;;10.93;5.63;;;15.60;99.90;;;;;;5093980;28;20660;-75
2023/05/25 06:42:12;;;;;;;12.60;6.40;;;15.60;99.90;;;;;;5096186;28;20202;-73
2023/05/25 06:44:38;;;;;;;13.20;5.97;;;15.70;99.90;;;;;;5089076;28;20196;-72
2023/05/25 06:47:06;;;;;;;7.43;4.90;;;15.50;99.90;;;;;;5089405;28;20274;-72
2023/05/25 06:49:32;;;;;;;12.07;5.55;;;15.50;99.90;;;;;;5088112;28;20228;-74
2023/05/25 06:51:59;;;;;;;13.77;5.82;;;15.50;99.90;;;;;;5087409;28;20604;-72
2023/05/25 06:54:26;;;;;;;13.05;6.05;;;15.70;99.90;;;;;;5081981;28;20644;-74
2023/05/25 06:56:53;;;;;;;16.70;6.47;;;15.70;99.90;;;;;;5087516;28;20723;-73
2023/05/25 06:59:20;;;;;;;15.53;5.87;;;15.70;99.90;;;;;;5091101;28;20199;-72
2023/05/25 07:01:47;;;;;;;12.80;5.75;;;15.90;99.90;;;;;;5095527;28;20281;-73
2023/05/25 07:04:14;;;;;;;14.15;5.95;;;15.50;99.90;;;;;;5090703;28;20200;-73
2023/05/25 07:06:41;;;;;;;15.00;6.93;;;15.60;99.90;;;;;;5090431;28;20626;-72
2023/05/25 07:09:07;;;;;;;12.48;6.07;;;15.70;99.90;;;;;;5092010;28;20261;-72
2023/05/25 07:11:34;;;;;;;13.70;6.60;;;15.60;99.90;;;;;;5089572;28;20188;-75
2023/05/25 07:14:01;;;;;;;13.13;5.87;;;15.70;99.90;;;;;;5091902;28;20196;-74
2023/05/25 07:16:28;;;;;;;13.67;6.63;;;15.60;99.90;;;;;;5090834;28;20655;-74
2023/05/25 07:18:55;;;;;;;14.80;7.50;;;15.60;99.90;;;;;;5095370;28;20674;-72
2023/05/25 07:21:24;;;;;;;14.03;7.00;;;15.50;99.90;;;;;;5096806;28;20651;-71
2023/05/25 07:23:51;;;;;;;14.40;7.50;;;15.50;99.90;;;;;;5092226;28;20208;-73
2023/05/25 07:26:21;;;;;;;12.73;7.33;;;15.50;99.90;;;;;;5094782;28;20241;-72
2023/05/25 07:28:48;;;;;;;16.60;6.93;;;15.50;99.90;;;;;;5096349;28;20663;-72
2023/05/25 07:31:15;;;;;;;13.37;7.13;;;15.50;99.90;;;;;;5076045;28;20352;-72
2023/05/25 07:33:42;;;;;;;16.57;7.33;;;15.60;99.90;;;;;;5073565;28;20238;-73
2023/05/25 07:36:09;;;;;;;17.33;7.60;;;15.70;99.90;;;;;;5094287;28;20663;-72
2023/05/25 07:38:36;;;;;;;13.03;7.00;;;15.70;99.90;;;;;;5095864;28;20468;-72
2023/05/25 07:41:03;;;;;;;17.75;7.30;;;15.90;99.90;;;;;;5092727;28;20204;-73
2023/05/25 07:43:30;;;;;;;14.88;7.70;;;16.10;99.90;;;;;;5073557;28;20224;-73
2023/05/25 07:45:57;;;;;;;11.90;6.55;;;16.30;99.90;;;;;;5093835;28;20244;-73
2023/05/25 07:48:23;;;;;;;16.27;6.78;;;16.30;99.90;;;;;;5087798;28;20193;-73
2023/05/25 07:50:51;;;;;;;16.50;7.68;;;16.50;99.90;;;;;;5092555;28;20265;-73
2023/05/25 07:53:17;;;;;;;16.38;7.30;;;16.50;99.90;;;;;;5094926;28;20195;-72
2023/05/25 07:55:44;;;;;;;11.75;6.25;;;16.70;99.90;;;;;;5089914;28;20203;-73
2023/05/25 07:58:11;;;;;;;13.98;5.88;;;16.60;99.90;;;;;;5093796;28;20718;-73
2023/05/25 08:00:39;;;;;;;10.75;5.70;;;16.50;99.90;;;;;;5090934;28;20200;-72
2023/05/25 08:03:06;;;;;;;12.70;5.93;;;16.60;99.90;;;;;;5070585;28;20210;-72
2023/05/25 08:05:33;;;;;;;12.75;5.50;;;17.00;99.90;;;;;;5087995;28;20291;-72
2023/05/25 08:08:00;;;;;;;13.00;5.43;;;17.50;99.90;;;;;;5088712;28;20228;-73
2023/05/25 08:10:30;;;;;;;12.00;5.40;;;18.10;99.90;;;;;;5087417;28;20237;-73
2023/05/25 08:12:58;;;;;;;9.05;4.95;;;18.20;99.90;;;;;;5072156;28;20584;-74
2023/05/25 08:15:25;;;;;;;9.55;4.60;;;18.40;99.90;;;;;;5086810;28;20195;-73
2023/05/25 08:17:52;;;;;;;9.55;5.18;;;19.20;99.90;;;;;;5090011;28;20309;-74
2023/05/25 08:20:19;;;;;;;11.23;5.45;;;19.50;99.90;;;;;;5091853;28;20199;-73
2023/05/25 08:22:46;;;;;;;9.80;4.93;;;19.80;99.90;;;;;;5089934;28;20204;-76
2023/05/25 08:25:13;;;;;;;7.22;4.13;;;20.00;99.90;;;;;;5087700;28;20196;-72
2023/05/25 08:27:40;;;;;;;9.57;4.30;;;20.20;99.90;;;;;;5093896;28;20200;-73
2023/05/25 08:30:07;;;;;;;10.43;4.47;;;20.40;99.90;;;;;;5084705;28;20223;-73
2023/05/25 08:32:34;;;;;;;11.07;5.10;;;20.40;99.90;;;;;;5083068;28;20337;-73
2023/05/25 08:35:02;;;;;;;7.63;3.97;;;20.60;99.90;;;;;;5090731;28;20282;-73
2023/05/25 08:37:30;;;;;;;8.15;3.70;;;21.00;99.90;;;;;;5066812;28;20241;-73
2023/05/25 08:39:59;;;;;;;8.20;3.88;;;21.40;99.90;;;;;;5088519;28;20208;-73
2023/05/25 08:42:27;;;;;;;8.73;3.85;;;21.70;99.90;;;;;;5086566;28;20597;-73
2023/05/25 08:44:53;;;;;;;6.95;3.45;;;21.80;99.90;;;;;;5093950;28;20271;-73
2023/05/25 08:47:21;;;;;;;7.05;3.10;;;21.70;99.90;;;;;;5095940;28;20215;-74
2023/05/25 08:49:49;;;;;;;8.25;3.47;;;21.40;99.90;;;;;;5088677;28;20216;-72
2023/05/25 08:52:21;;;;;;;6.63;3.55;;;21.20;99.90;;;;;;5093117;28;20698;-73
2023/05/25 08:54:52;;;;;;;6.68;3.70;;;21.10;99.90;;;;;;5092910;28;20203;-73
2023/05/25 08:57:35;;;;;;;7.75;3.25;;;21.00;99.90;;;;;;5087323;28;20339;-75
2023/05/25 09:00:10;;;;;;;5.53;3.05;;;20.70;99.90;;;;;;5089016;28;20214;-73
2023/05/25 09:02:58;;;;;;;5.90;2.75;;;20.70;99.90;;;;;;5087233;28;20634;-74
2023/05/25 09:05:26;;;;;;;10.85;2.97;;;20.80;99.90;;;;;;5091075;28;20210;-72
2023/05/25 09:07:55;;;;;;;6.72;2.80;;;21.00;99.90;;;;;;5092104;28;20198;-73
2023/05/25 09:10:25;;;;;;;5.68;2.90;;;21.30;99.90;;;;;;5083248;28;20625;-73
2023/05/25 09:12:53;;;;;;;5.57;2.25;;;21.70;99.90;;;;;;5089259;28;20195;-73
2023/05/25 09:15:20;;;;;;;7.78;3.00;;;21.80;99.90;;;;;;5089141;28;20235;-74
2023/05/25 09:17:47;;;;;;;4.07;3.03;;;21.60;99.90;;;;;;5085574;28;20212;-73
2023/05/25 09:20:17;;;;;;;6.68;3.22;;;21.50;99.90;;;;;;5094923;28;20249;-73
2023/05/25 09:22:47;;;;;;;6.28;3.05;;;21.20;99.90;;;;;;5093009;28;20210;-73
2023/05/25 09:25:19;;;;;;;6.38;3.38;;;20.90;99.90;;;;;;5086871;28;20195;-72
2023/05/25 09:27:46;;;;;;;5.38;3.40;;;20.50;99.90;;;;;;5088090;28;20310;-73
2023/05/25 09:30:13;;;;;;;7.38;3.20;;;20.30;99.90;;;;;;5096670;28;20222;-73
2023/05/25 09:32:40;;;;;;;5.05;3.05;;;20.10;99.90;;;;;;5089655;28;20215;-73
2023/05/25 09:35:08;;;;;;;7.78;3.63;;;20.40;99.90;;;;;;5090109;28;20294;-72
2023/05/25 09:37:36;;;;;;;7.00;3.00;;;20.40;99.90;;;;;;5096554;28;20192;-72
2023/05/25 09:40:04;;;;;;;7.53;3.10;;;20.30;99.90;;;;;;5093829;28;20211;-72
2023/05/25 09:42:32;;;;;;;5.35;2.85;;;20.40;99.90;;;;;;5084434;28;20513;-73
2023/05/25 09:45:00;;;;;;;5.95;3.15;;;20.70;99.90;;;;;;5089835;28;20254;-74
2023/05/25 09:47:27;;;;;;;6.82;2.65;;;21.10;99.90;;;;;;5073685;28;20211;-73
2023/05/25 09:49:58;;;;;;;7.40;2.90;;;21.40;99.90;;;;;;5090588;28;20671;-73
2023/05/25 09:52:26;;;;;;;6.57;2.90;;;21.40;99.90;;;;;;5089787;28;20196;-73
2023/05/25 09:54:55;;;;;;;4.75;2.38;;;21.40;99.90;;;;;;5091344;28;20199;-75
2023/05/25 09:57:21;;;;;;;5.93;2.65;;;21.20;99.90;;;;;;5090199;28;20235;-73
2023/05/25 09:59:48;;;;;;;4.30;2.75;;;20.90;99.90;;;;;;5088761;28;20281;-73
2023/05/25 10:02:15;;;;;;;6.82;3.00;;;20.90;99.90;;;;;;5082584;28;20204;-73
2023/05/25 10:04:42;;;;;;;6.88;3.25;;;20.70;99.90;;;;;;5079790;28;20222;-73
2023/05/25 10:07:09;;;;;;;7.20;2.60;;;20.60;99.90;;;;;;5086179;28;20227;-73
2023/05/25 10:09:40;;;;;;;6.68;2.70;;;20.60;99.90;;;;;;5092644;28;20249;-72
2023/05/25 10:12:07;;;;;;;6.18;2.67;;;20.50;99.90;;;;;;5079388;28;20203;-73
2023/05/25 10:14:36;;;;;;;5.57;2.80;;;20.40;99.90;;;;;;5095867;28;20643;-72
2023/05/25 10:17:07;;;;;;;9.02;2.53;;;20.40;99.90;;;;;;5094052;28;20238;-73
2023/05/25 10:19:48;;;;;;;6.30;2.35;;;20.50;99.90;;;;;;5093114;28;20205;-72
2023/05/25 10:22:23;;;;;;;7.07;2.58;;;20.70;99.90;;;;;;5098028;28;20229;-73
2023/05/25 10:25:09;;;;;;;5.15;2.03;;;20.70;99.90;;;;;;5094941;28;20204;-72
2023/05/25 10:27:40;;;;;;;5.22;2.42;;;20.70;99.90;;;;;;5072996;28;20203;-73
2023/05/25 10:30:08;;;;;;;6.35;2.20;;;20.90;99.90;;;;;;5095120;28;20383;-71
2023/05/25 10:32:36;;;;;;;4.05;2.45;;;21.20;99.90;;;;;;5091776;28;20223;-74
2023/05/25 10:35:05;;;;;;;5.47;2.22;;;21.40;99.90;;;;;;5097851;28;20204;-73
2023/05/25 10:37:33;;;;;;;6.47;3.00;;;21.40;99.90;;;;;;5089302;28;20202;-73
2023/05/25 10:40:02;;;;;;;4.68;2.22;;;21.30;99.90;;;;;;5074752;28;20926;-72
2023/05/25 10:42:29;;;;;;;6.85;2.53;;;21.20;99.90;;;;;;5067403;28;20315;-72
2023/05/25 10:44:57;;;;;;;7.53;2.60;;;21.20;99.90;;;;;;5091150;28;20564;-73
2023/05/25 10:47:24;;;;;;;8.25;3.00;;;21.20;99.90;;;;;;5091401;28;20277;-72
2023/05/25 10:49:57;;;;;;;9.32;3.30;;;21.30;99.90;;;;;;5087914;28;20215;-72
2023/05/25 10:52:29;;;;;;;10.35;2.92;;;21.30;99.90;;;;;;5086767;28;20219;-72
2023/05/25 10:55:00;;;;;;;5.10;2.90;;;21.20;99.90;;;;;;5085227;28;20231;-73
2023/05/25 10:57:28;;;;;;;3.60;1.98;;;21.20;99.90;;;;;;5073767;28;20279;-72
2023/05/25 11:00:05;;;;;;;7.15;2.25;;;21.00;99.90;;;;;;5045295;28;20201;-72
2023/05/25 11:02:54;;;;;;;5.25;2.20;;;21.00;99.90;;;;;;5048642;28;20578;-71
2023/05/25 11:05:25;;;;;;;4.47;2.10;;;21.10;99.90;;;;;;5049655;28;20197;-72
2023/05/25 11:07:57;;;;;;;6.32;2.60;;;21.20;99.90;;;;;;5049947;28;20278;-72
2023/05/25 11:10:48;;;;;;;5.70;2.75;;;21.30;99.90;;;;;;5047647;28;20237;-72
2023/05/25 11:13:29;;;;;;;5.97;2.63;;;21.60;99.90;;;;;;5049404;28;20198;-72
2023/05/25 11:16:17;;;;;;;5.88;2.72;;;21.60;99.90;;;;;;5045917;28;20237;-72
2023/05/25 11:18:56;;;;;;;6.32;2.80;;;21.50;99.90;;;;;;5048929;28;20205;-74
2023/05/25 11:21:26;;;;;;;8.38;2.67;;;21.30;99.90;;;;;;5046100;28;20205;-73
2023/05/25 11:24:03;;;;;;;7.68;3.40;;;21.30;99.90;;;;;;5049342;28;20231;-72
2023/05/25 11:26:32;;;;;;;6.63;2.92;;;21.20;99.90;;;;;;5049201;28;20219;-73
2023/05/25 11:29:00;;;;;;;7.80;2.85;;;21.20;99.90;;;;;;5048651;28;20209;-73
2023/05/25 11:31:32;;;;;;;8.32;3.22;;;21.20;99.90;;;;;;5050403;28;20275;-72
2023/05/25 11:34:08;;;;;;;9.90;2.88;;;21.20;99.90;;;;;;5047420;28;20527;-72
2023/05/25 11:36:35;;;;;;;8.25;3.40;;;21.20;99.90;;;;;;5049614;28;20216;-72
2023/05/25 11:39:04;;;;;;;19.52;4.60;;;21.40;99.90;;;;;;5051177;28;20204;-71
2023/05/25 11:42:00;;;;;;;12.82;3.10;;;21.60;99.90;;;;;;5048711;28;20688;-72
2023/05/25 11:44:37;;;;;;;11.40;3.20;;;21.70;99.90;;;;;;5047691;28;20201;-73
2023/05/25 11:47:13;;;;;;;6.18;2.75;;;21.80;99.90;;;;;;5048840;28;20220;-72
2023/05/25 11:49:41;;;;;;;39.00;6.97;;;21.80;99.90;;;;;;5063908;28;20247;-72
2023/05/25 11:52:09;;;;;;;37.45;5.80;;;22.00;99.90;;;;;;5048130;28;20217;-73
2023/05/25 11:54:36;;;;;;;27.10;5.05;;;22.10;99.90;;;;;;5046804;28;20204;-71
2023/05/25 11:57:03;;;;;;;9.90;3.20;;;22.00;99.90;;;;;;5062684;28;20475;-74
2023/05/25 11:59:31;;;;;;;8.75;3.42;;;22.30;99.90;;;;;;5092225;28;20586;-73
2023/05/25 12:02:00;;;;;;;8.07;2.67;;;22.10;99.90;;;;;;5093450;28;20251;-72
2023/05/25 12:04:28;;;;;;;5.72;2.53;;;21.80;99.90;;;;;;5070408;28;20208;-73
2023/05/25 12:07:06;;;;;;;10.93;3.40;;;21.80;99.90;;;;;;5068602;28;20204;-73
2023/05/25 12:09:35;;;;;;;6.97;3.10;;;21.80;99.90;;;;;;5083986;28;20204;-73
2023/05/25 12:12:03;;;;;;;7.80;3.10;;;21.60;99.90;;;;;;5090205;28;20543;-72
2023/05/25 12:14:31;;;;;;;9.20;3.10;;;21.80;99.90;;;;;;5094086;28;20855;-74
2023/05/25 12:16:58;;;;;;;6.90;2.60;;;21.80;99.90;;;;;;5087652;28;20571;-73
2023/05/25 12:19:25;;;;;;;5.22;2.40;;;21.70;99.90;;;;;;5091428;28;20544;-76
2023/05/25 12:21:52;;;;;;;8.40;3.15;;;21.60;99.90;;;;;;5089138;28;20212;-74
2023/05/25 12:24:19;;;;;;;8.32;3.45;;;21.60;99.90;;;;;;5073410;28;20196;-75
2023/05/25 12:26:56;;;;;;;8.25;2.70;;;21.80;99.90;;;;;;5068311;28;20729;-74
2023/05/25 12:29:24;;;;;;;7.53;2.53;;;21.60;99.90;;;;;;5085610;28;20303;-75
2023/05/25 12:31:51;;;;;;;7.85;2.63;;;21.50;99.90;;;;;;5095768;28;20227;-73
2023/05/25 12:34:19;;;;;;;6.68;2.85;;;21.50;99.90;;;;;;5071254;28;20220;-74
2023/05/25 12:36:56;;;;;;;18.80;4.38;;;21.50;99.90;;;;;;5083145;28;20215;-74
2023/05/25 12:39:28;;;;;;;22.15;4.70;;;21.50;99.90;;;;;;5087521;28;20203;-74
2023/05/25 12:41:57;;;;;;;10.15;3.08;;;21.50;99.90;;;;;;5083901;28;20195;-73
2023/05/25 12:44:33;;;;;;;10.48;3.92;;;21.50;99.90;;;;;;5089702;28;20222;-74
2023/05/25 12:47:14;;;;;;;8.00;3.05;;;21.50;99.90;;;;;;5082592;28;20220;-74
2023/05/25 12:49:45;;;;;;;8.85;2.97;;;21.40;99.90;;;;;;5093997;28;20269;-74
2023/05/25 12:52:37;;;;;;;8.35;3.00;;;21.30;99.90;;;;;;5090245;28;20227;-75